Time;durP1;ratioP1;P1;durP2;ratioP2;P2;SDS_P1;SDS_P2;PMS_P1;PMS_P2;Temp;Humidity;BMP_temperature;BMP_pressure;BME280_temperature;BME280_humidity;BME280_pressure;Samples;Min_cycle;Max_cycle;Signal;HPM_P1;HPM_P2
2024/02/07 00:00:09;;;;;;;6.97;0.93;;;6.40;99.90;;;;;;5102013;28;20063;-39
2024/02/07 00:02:35;;;;;;;3.22;0.95;;;6.30;99.90;;;;;;5104315;28;20539;-40
2024/02/07 00:05:01;;;;;;;4.88;0.65;;;6.40;99.90;;;;;;5114354;28;20074;-38
2024/02/07 00:07:26;;;;;;;3.60;0.47;;;6.30;99.90;;;;;;5098569;28;20349;-42
2024/02/07 00:09:52;;;;;;;1.95;0.70;;;6.30;99.90;;;;;;5093721;28;20462;-42
2024/02/07 00:12:17;;;;;;;1.42;0.52;;;6.20;99.90;;;;;;5093320;27;20439;-44
2024/02/07 00:14:43;;;;;;;10.25;0.63;;;6.20;99.90;;;;;;5093726;28;20016;-42
2024/02/07 00:17:09;;;;;;;10.48;1.00;;;6.20;99.90;;;;;;5105595;28;20076;-41
2024/02/07 00:19:35;;;;;;;5.30;0.77;;;6.30;99.90;;;;;;5102697;28;20432;-39
2024/02/07 00:22:03;;;;;;;6.80;0.98;;;6.30;99.90;;;;;;5104496;28;20024;-41
2024/02/07 00:24:28;;;;;;;3.00;0.45;;;6.30;99.90;;;;;;5094014;28;20101;-42
2024/02/07 00:26:54;;;;;;;5.20;1.13;;;6.30;99.90;;;;;;5101083;28;20472;-44
2024/02/07 00:29:19;;;;;;;4.55;0.80;;;6.30;99.90;;;;;;5093476;28;20027;-39
2024/02/07 00:31:45;;;;;;;5.90;0.70;;;6.30;99.90;;;;;;5100316;28;20400;-43
2024/02/07 00:34:11;;;;;;;5.47;0.65;;;6.30;99.90;;;;;;5106181;28;20407;-39
2024/02/07 00:36:38;;;;;;;6.88;0.77;;;6.20;99.90;;;;;;5114072;28;20027;-40
2024/02/07 00:39:04;;;;;;;8.65;1.10;;;6.10;99.90;;;;;;5093582;28;20071;-41
2024/02/07 00:41:30;;;;;;;4.32;0.70;;;6.00;99.90;;;;;;5093349;28;20024;-42
2024/02/07 00:43:56;;;;;;;3.33;0.77;;;6.00;99.90;;;;;;5093434;28;20038;-42
2024/02/07 00:46:22;;;;;;;2.83;0.63;;;6.00;99.90;;;;;;5102862;28;20051;-39
2024/02/07 00:48:48;;;;;;;2.65;1.33;;;6.00;99.90;;;;;;5106407;27;20383;-40
2024/02/07 00:51:14;;;;;;;7.05;1.33;;;6.10;99.90;;;;;;5107296;27;20019;-41
2024/02/07 00:53:39;;;;;;;6.50;0.90;;;6.10;99.90;;;;;;5113242;28;20385;-41
2024/02/07 00:56:05;;;;;;;4.85;1.63;;;6.00;99.90;;;;;;5112873;28;20019;-42
2024/02/07 00:58:31;;;;;;;10.10;1.08;;;6.00;99.90;;;;;;5093830;28;20063;-44
2024/02/07 01:00:57;;;;;;;5.97;0.88;;;6.00;99.90;;;;;;5092400;28;20054;-43
2024/02/07 01:03:23;;;;;;;12.50;1.75;;;6.00;99.90;;;;;;5092782;28;20028;-54
2024/02/07 01:05:49;;;;;;;10.30;1.58;;;5.90;99.90;;;;;;5093645;28;20024;-54
2024/02/07 01:08:15;;;;;;;6.68;1.00;;;5.90;99.90;;;;;;5100045;28;20028;-54
2024/02/07 01:10:42;;;;;;;4.55;1.20;;;6.00;99.90;;;;;;5094087;28;20497;-56
2024/02/07 01:13:07;;;;;;;9.98;1.27;;;6.00;99.90;;;;;;5096325;28;20024;-52
2024/02/07 01:15:33;;;;;;;9.40;1.10;;;6.00;99.90;;;;;;5101666;28;20016;-55
2024/02/07 01:17:59;;;;;;;11.93;1.13;;;6.00;99.90;;;;;;5094956;28;20023;-59
2024/02/07 01:20:24;;;;;;;5.25;0.70;;;6.00;99.90;;;;;;5101535;28;20460;-55
2024/02/07 01:22:50;;;;;;;5.32;0.88;;;5.90;99.90;;;;;;5092742;28;20369;-54
2024/02/07 01:25:17;;;;;;;9.32;0.57;;;5.90;99.90;;;;;;5098736;28;20055;-52
2024/02/07 01:27:42;;;;;;;4.90;0.63;;;5.90;99.90;;;;;;5096426;28;20756;-55
2024/02/07 01:30:11;;;;;;;3.63;0.55;;;5.90;99.90;;;;;;5096578;28;20036;-53
2024/02/07 01:32:42;;;;;;;1.75;0.65;;;5.80;99.90;;;;;;5097343;28;20354;-54
2024/02/07 01:35:11;;;;;;;2.13;0.38;;;5.80;99.90;;;;;;5096636;28;20480;-54
2024/02/07 01:37:38;;;;;;;10.15;0.80;;;5.80;99.90;;;;;;5098793;28;20108;-57
2024/02/07 01:40:06;;;;;;;5.60;0.70;;;5.90;99.90;;;;;;5097546;28;20392;-52
2024/02/07 01:42:32;;;;;;;10.27;1.25;;;5.90;99.90;;;;;;5107972;28;20024;-54
2024/02/07 01:45:33;;;;;;;7.25;1.15;;;5.80;99.90;;;;;;5096487;28;20063;-58
2024/02/07 01:47:59;;;;;;;8.63;1.00;;;5.80;99.90;;;;;;5103439;28;20349;-59
2024/02/07 01:50:25;;;;;;;4.88;0.60;;;5.80;99.90;;;;;;5112517;28;20384;-55
2024/02/07 01:52:54;;;;;;;2.95;0.55;;;5.80;99.90;;;;;;5106553;28;20023;-54
2024/02/07 01:55:21;;;;;;;1.90;0.50;;;5.80;99.90;;;;;;5106462;28;20790;-63
2024/02/07 01:57:48;;;;;;;5.35;0.60;;;5.70;99.90;;;;;;5110033;27;20035;-55
2024/02/07 02:00:14;;;;;;;1.00;0.33;;;5.60;99.90;;;;;;5097433;28;20519;-50
2024/02/07 02:02:43;;;;;;;1.65;0.77;;;5.70;99.90;;;;;;5110812;28;20020;-55
2024/02/07 02:05:09;;;;;;;8.10;0.40;;;5.60;99.90;;;;;;5095461;28;20480;-56
2024/02/07 02:07:34;;;;;;;4.55;0.57;;;5.60;99.90;;;;;;5096429;28;20038;-56
2024/02/07 02:10:00;;;;;;;4.40;0.80;;;5.60;99.90;;;;;;5106268;28;20016;-55
2024/02/07 02:12:27;;;;;;;7.93;0.82;;;5.50;99.90;;;;;;5103967;28;20468;-52
2024/02/07 02:14:52;;;;;;;4.38;0.85;;;5.50;99.90;;;;;;5110699;28;20084;-51
2024/02/07 02:17:18;;;;;;;4.20;0.32;;;5.40;99.90;;;;;;5097861;28;20032;-54
2024/02/07 02:19:44;;;;;;;11.80;0.80;;;5.50;99.90;;;;;;5114355;28;20400;-54
2024/02/07 02:22:09;;;;;;;3.13;1.38;;;5.40;99.90;;;;;;5112782;28;20069;-56
2024/02/07 02:24:50;;;;;;;8.20;1.40;;;5.40;99.90;;;;;;5106864;28;20426;-56
2024/02/07 02:27:42;;;;;;;4.95;1.58;;;5.40;99.90;;;;;;5110204;28;20033;-56
2024/02/07 02:30:20;;;;;;;6.72;0.80;;;5.40;99.90;;;;;;5095886;28;20042;-55
2024/02/07 02:32:48;;;;;;;11.18;1.23;;;5.40;99.90;;;;;;5111448;28;20107;-55
2024/02/07 02:35:18;;;;;;;5.38;0.50;;;5.40;99.90;;;;;;5100472;28;20471;-55
2024/02/07 02:37:45;;;;;;;7.15;0.60;;;5.30;99.90;;;;;;5096008;28;20016;-56
2024/02/07 02:40:11;;;;;;;1.08;0.52;;;5.20;99.90;;;;;;5101073;28;20032;-55
2024/02/07 02:42:37;;;;;;;5.75;0.55;;;5.20;99.90;;;;;;5097658;28;20028;-56
2024/02/07 02:45:03;;;;;;;9.68;0.70;;;5.10;99.90;;;;;;5114499;28;20047;-57
2024/02/07 02:47:29;;;;;;;1.73;0.47;;;5.00;99.90;;;;;;5113339;28;20069;-59
2024/02/07 02:49:55;;;;;;;3.85;0.70;;;4.90;99.90;;;;;;5109955;28;20399;-55
2024/02/07 02:52:24;;;;;;;7.32;0.60;;;5.00;99.90;;;;;;5098494;28;20016;-56
2024/02/07 02:54:50;;;;;;;6.93;1.50;;;5.00;99.90;;;;;;5098965;28;20027;-54
2024/02/07 02:57:18;;;;;;;8.95;0.50;;;4.90;99.90;;;;;;5099691;28;20472;-56
2024/02/07 02:59:46;;;;;;;14.23;1.45;;;4.80;99.90;;;;;;5094775;28;20012;-55
2024/02/07 03:02:14;;;;;;;8.68;1.45;;;4.80;99.90;;;;;;5095466;28;20024;-55
2024/02/07 03:04:43;;;;;;;3.85;0.50;;;4.70;99.90;;;;;;5096148;28;20472;-52
2024/02/07 03:09:54;;;;;;;7.60;1.48;;;4.70;99.90;;;;;;5104224;28;20085;-54
2024/02/07 03:12:20;;;;;;;4.90;0.17;;;4.70;99.90;;;;;;5097023;28;20020;-55
2024/02/07 03:14:46;;;;;;;12.55;0.85;;;4.70;99.90;;;;;;5101578;28;20490;-53
2024/02/07 03:17:12;;;;;;;7.72;0.52;;;4.70;99.90;;;;;;5095739;28;20012;-56
2024/02/07 03:19:38;;;;;;;9.43;0.40;;;4.80;99.90;;;;;;5102225;28;20020;-55
2024/02/07 03:22:03;;;;;;;9.93;0.63;;;4.70;99.90;;;;;;5095148;28;20503;-55
2024/02/07 03:24:29;;;;;;;8.45;0.73;;;4.80;99.90;;;;;;5099184;27;20099;-55
2024/02/07 03:26:55;;;;;;;2.80;0.40;;;4.80;99.90;;;;;;5107736;28;20452;-55
2024/02/07 03:29:22;;;;;;;11.18;1.35;;;4.80;99.90;;;;;;5099441;28;20472;-59
2024/02/07 03:31:48;;;;;;;5.57;0.98;;;4.90;99.90;;;;;;5094031;28;20093;-52
2024/02/07 03:34:13;;;;;;;5.95;0.98;;;4.90;99.90;;;;;;5094741;28;20396;-53
2024/02/07 03:36:39;;;;;;;3.30;0.70;;;5.00;99.90;;;;;;5107939;28;20023;-59
2024/02/07 03:39:07;;;;;;;3.22;0.88;;;5.00;99.90;;;;;;5099456;28;20459;-59
2024/02/07 03:41:34;;;;;;;;;;;5.00;99.90;;;;;;5098137;28;20027;-55
2024/02/07 03:44:00;;;;;;;5.70;0.65;;;5.00;99.90;;;;;;5103107;28;19920;-55
2024/02/07 03:46:25;;;;;;;9.80;0.85;;;5.10;99.90;;;;;;5102092;28;20032;-55
2024/02/07 03:48:51;;;;;;;6.25;0.55;;;5.10;99.90;;;;;;5114236;28;20031;-61
2024/02/07 03:51:17;;;;;;;12.98;0.80;;;5.10;99.90;;;;;;5098220;28;20032;-56
2024/02/07 03:53:46;;;;;;;4.82;0.88;;;5.10;99.90;;;;;;5094311;28;20020;-56
2024/02/07 03:56:12;;;;;;;10.77;1.60;;;5.10;99.90;;;;;;5095038;28;20461;-57
2024/02/07 03:58:38;;;;;;;3.97;0.80;;;5.10;99.90;;;;;;5105864;28;20596;-54
2024/02/07 04:01:04;;;;;;;4.22;0.63;;;5.10;99.90;;;;;;5102661;28;20476;-54
2024/02/07 04:03:30;;;;;;;1.05;0.22;;;5.10;99.90;;;;;;5096338;28;20027;-53
2024/02/07 04:05:56;;;;;;;3.33;0.82;;;5.20;99.90;;;;;;5109654;28;20027;-53
2024/02/07 04:08:22;;;;;;;8.00;0.80;;;5.10;99.90;;;;;;5108312;28;20023;-55
2024/02/07 04:10:51;;;;;;;2.47;0.55;;;5.10;99.90;;;;;;5103585;28;20019;-54
2024/02/07 05:16:00;;;;;;;5.63;1.02;;;5.50;99.90;;;;;;5097548;28;20042;-41
2024/02/07 05:18:25;;;;;;;6.10;0.50;;;5.50;99.90;;;;;;5108262;28;20012;-40
2024/02/07 05:20:51;;;;;;;3.40;0.43;;;5.40;99.90;;;;;;5096327;28;20032;-44
2024/02/07 05:23:16;;;;;;;6.13;0.50;;;5.40;99.90;;;;;;5102695;28;20160;-53
2024/02/07 05:25:46;;;;;;;13.35;1.38;;;5.40;99.90;;;;;;5110095;28;20019;-55
2024/02/07 05:28:12;;;;;;;4.93;0.95;;;5.30;99.90;;;;;;5092790;28;20539;-54
2024/02/07 05:30:39;;;;;;;1.10;0.60;;;5.20;99.90;;;;;;5093718;28;20491;-53
2024/02/07 05:33:05;;;;;;;6.57;0.40;;;5.30;99.90;;;;;;5092518;28;20502;-57
2024/02/07 05:35:30;;;;;;;3.78;0.55;;;5.30;99.90;;;;;;5092760;28;20101;-53
2024/02/07 05:37:56;;;;;;;12.00;1.40;;;5.30;99.90;;;;;;5106786;28;20027;-53
2024/02/07 05:40:22;;;;;;;8.80;1.02;;;5.30;99.90;;;;;;5092584;28;20565;-54
2024/02/07 05:42:47;;;;;;;5.03;0.82;;;5.30;99.90;;;;;;5092673;28;20415;-53
2024/02/07 05:45:13;;;;;;;10.45;1.23;;;5.30;99.90;;;;;;5097533;28;20036;-54
2024/02/07 05:47:40;;;;;;;4.22;0.70;;;5.30;99.90;;;;;;5092476;28;20024;-53
2024/02/07 05:50:09;;;;;;;2.10;0.73;;;5.30;99.90;;;;;;5092281;28;20024;-53
2024/02/07 05:52:38;;;;;;;10.52;1.30;;;5.40;99.90;;;;;;5104946;28;20020;-53
2024/02/07 05:55:05;;;;;;;7.07;1.02;;;5.40;99.90;;;;;;5106614;28;20107;-53
2024/02/07 05:57:33;;;;;;;6.32;0.50;;;5.40;99.90;;;;;;5094623;28;20027;-53
2024/02/07 05:59:59;;;;;;;3.03;1.02;;;5.40;99.90;;;;;;5092526;28;20016;-54
2024/02/07 06:02:24;;;;;;;5.25;1.02;;;5.40;99.90;;;;;;5097062;28;20032;-54
2024/02/07 06:04:51;;;;;;;11.93;1.10;;;5.40;99.90;;;;;;5092021;28;20473;-53
2024/02/07 06:07:16;;;;;;;2.55;0.77;;;5.40;99.90;;;;;;5092623;28;20074;-53
2024/02/07 06:09:45;;;;;;;2.05;0.65;;;5.40;99.90;;;;;;5096221;28;20084;-51
2024/02/07 06:12:11;;;;;;;;;;;5.40;99.90;;;;;;5092919;28;20492;-54
2024/02/07 06:14:37;;;;;;;7.50;1.08;;;5.50;99.90;;;;;;5095899;28;19915;-54
2024/02/07 06:17:03;;;;;;;8.23;2.42;;;5.50;99.90;;;;;;5099690;28;20472;-57
2024/02/07 06:19:29;;;;;;;8.80;1.20;;;5.50;99.90;;;;;;5096408;28;20028;-58
2024/02/07 06:21:54;;;;;;;1.73;0.70;;;5.50;99.90;;;;;;5094166;28;20024;-53
2024/02/07 06:24:20;;;;;;;6.00;1.15;;;5.50;99.90;;;;;;5097772;28;20090;-54
2024/02/07 06:26:45;;;;;;;2.05;0.57;;;5.50;99.90;;;;;;5098254;28;20464;-59
2024/02/07 06:29:11;;;;;;;2.42;0.63;;;5.50;99.90;;;;;;5106058;28;20027;-53
2024/02/07 06:31:37;;;;;;;3.22;0.60;;;5.60;99.90;;;;;;5100705;28;20027;-53
2024/02/07 06:34:03;;;;;;;8.88;0.88;;;5.60;99.90;;;;;;5100848;28;20093;-53
2024/02/07 06:36:29;;;;;;;15.10;1.00;;;5.50;99.90;;;;;;5103988;28;20015;-53
2024/02/07 06:38:55;;;;;;;4.95;0.47;;;5.50;99.90;;;;;;5098840;28;20541;-54
2024/02/07 06:41:20;;;;;;;5.13;0.50;;;5.50;99.90;;;;;;5095913;28;20109;-53
2024/02/07 06:43:46;;;;;;;6.97;0.80;;;5.50;99.90;;;;;;5100194;28;20049;-57
2024/02/07 06:46:12;;;;;;;7.43;1.77;;;5.60;99.90;;;;;;5116066;28;20497;-53
2024/02/07 06:48:37;;;;;;;8.00;0.88;;;5.60;99.90;;;;;;5107863;28;20028;-54
2024/02/07 06:51:03;;;;;;;7.00;0.98;;;5.50;99.90;;;;;;5096829;28;20036;-54
2024/02/07 06:53:29;;;;;;;3.00;1.08;;;5.60;99.90;;;;;;5095647;28;20093;-53
2024/02/07 06:55:54;;;;;;;9.60;1.00;;;5.50;99.90;;;;;;5095705;28;20028;-53
2024/02/07 06:58:20;;;;;;;7.15;0.77;;;5.50;99.90;;;;;;5095508;28;20023;-55
2024/02/07 07:00:45;;;;;;;14.15;2.15;;;5.50;99.90;;;;;;5095324;28;20388;-54
2024/02/07 07:03:11;;;;;;;1.70;0.70;;;5.50;99.90;;;;;;5095329;28;20028;-55
2024/02/07 07:05:37;;;;;;;4.40;1.10;;;5.50;99.90;;;;;;5096031;28;20031;-54
2024/02/07 07:08:03;;;;;;;12.80;1.23;;;5.50;99.90;;;;;;5095093;28;20063;-57
2024/02/07 07:10:28;;;;;;;8.13;1.33;;;5.50;99.90;;;;;;5095031;28;20110;-52
2024/02/07 07:12:54;;;;;;;4.38;0.88;;;5.60;99.90;;;;;;5095106;28;20489;-52
2024/02/07 07:15:20;;;;;;;4.85;1.23;;;5.60;99.90;;;;;;5097454;28;20093;-55
2024/02/07 07:17:46;;;;;;;5.47;0.98;;;5.70;99.90;;;;;;5094951;28;20024;-53
2024/02/07 07:20:12;;;;;;;11.23;1.60;;;5.70;99.90;;;;;;5095750;28;20093;-52
2024/02/07 07:22:38;;;;;;;5.75;1.58;;;5.70;99.90;;;;;;5094906;28;20376;-53
2024/02/07 07:25:04;;;;;;;6.75;1.17;;;5.70;99.90;;;;;;5095322;28;20039;-52
2024/02/07 07:27:30;;;;;;;7.47;1.30;;;5.80;99.90;;;;;;5095138;28;20498;-53
2024/02/07 07:29:56;;;;;;;6.53;1.20;;;5.80;99.90;;;;;;5112172;28;20020;-53
2024/02/07 07:32:22;;;;;;;3.67;1.17;;;5.80;99.90;;;;;;5097149;28;20035;-53
2024/02/07 07:34:47;;;;;;;8.88;2.15;;;5.80;99.90;;;;;;5094499;28;20040;-53
2024/02/07 07:37:13;;;;;;;8.07;1.55;;;5.80;99.90;;;;;;5095227;28;20369;-55
2024/02/07 07:39:41;;;;;;;6.78;1.40;;;5.80;99.90;;;;;;5094417;28;20089;-52
2024/02/07 07:42:07;;;;;;;;;;;5.90;99.90;;;;;;5104575;28;20023;-53
2024/02/07 07:44:33;;;;;;;3.80;0.65;;;5.90;99.90;;;;;;5097983;28;20053;-53
2024/02/07 07:46:58;;;;;;;5.47;1.00;;;5.90;99.90;;;;;;5096634;28;20056;-54
2024/02/07 07:49:24;;;;;;;15.75;1.77;;;5.90;99.90;;;;;;5096831;28;20046;-50
2024/02/07 07:51:49;;;;;;;4.72;1.30;;;6.00;99.90;;;;;;5106502;28;20080;-55
2024/02/07 07:54:16;;;;;;;15.35;2.60;;;6.00;99.90;;;;;;5095681;28;20024;-54
2024/02/07 07:56:41;;;;;;;18.17;1.67;;;6.00;99.90;;;;;;5100532;28;20020;-52
2024/02/07 07:59:07;;;;;;;6.80;1.20;;;6.00;99.90;;;;;;5102888;28;20107;-52
2024/02/07 08:01:33;;;;;;;12.38;1.38;;;6.00;99.90;;;;;;5094191;28;20051;-55
2024/02/07 08:03:58;;;;;;;6.45;1.52;;;6.00;99.90;;;;;;5094227;28;20028;-55
2024/02/07 08:06:24;;;;;;;9.60;2.17;;;6.00;99.90;;;;;;5095180;28;20032;-54
2024/02/07 08:08:50;;;;;;;20.92;2.70;;;6.00;99.90;;;;;;5107945;28;20103;-53
2024/02/07 08:11:15;;;;;;;10.02;1.55;;;6.10;99.90;;;;;;5113703;28;20031;-52
2024/02/07 08:13:41;;;;;;;9.63;1.45;;;6.10;99.90;;;;;;5099260;28;20072;-53
2024/02/07 08:16:06;;;;;;;27.08;2.20;;;6.10;99.90;;;;;;5100717;28;20036;-55
2024/02/07 08:18:33;;;;;;;14.65;1.70;;;6.10;99.90;;;;;;5101405;28;20117;-53
2024/02/07 08:20:59;;;;;;;14.77;1.90;;;6.10;99.90;;;;;;5096408;27;20534;-52
2024/02/07 08:23:25;;;;;;;14.23;2.00;;;6.10;99.90;;;;;;5107682;27;20114;-54
2024/02/07 08:25:51;;;;;;;5.97;1.20;;;6.10;99.90;;;;;;5112290;27;20027;-54
2024/02/07 08:28:16;;;;;;;8.95;1.35;;;6.10;99.90;;;;;;5104868;28;20535;-50
2024/02/07 08:30:42;;;;;;;12.27;1.38;;;6.10;99.90;;;;;;5113419;28;20035;-54
2024/02/07 08:33:08;;;;;;;10.02;1.35;;;6.10;99.90;;;;;;5111749;27;20476;-53
2024/02/07 08:35:34;;;;;;;16.27;1.55;;;6.20;99.90;;;;;;5113997;28;20606;-51
2024/02/07 08:37:59;;;;;;;18.35;1.63;;;6.20;99.90;;;;;;5098196;28;20024;-54
2024/02/07 08:40:26;;;;;;;11.98;1.27;;;6.20;99.90;;;;;;5093696;28;20396;-55
2024/02/07 08:42:55;;;;;;;22.33;1.83;;;6.20;99.90;;;;;;5108904;27;20422;-52
2024/02/07 08:45:21;;;;;;;6.50;1.10;;;6.20;99.90;;;;;;5110948;27;20541;-53
2024/02/07 08:47:47;;;;;;;11.55;1.33;;;6.30;99.90;;;;;;5103339;28;20023;-59
2024/02/07 08:50:13;;;;;;;6.55;1.98;;;6.30;99.90;;;;;;5108758;28;20078;-53
2024/02/07 08:52:39;;;;;;;7.10;1.15;;;6.30;99.90;;;;;;5094408;28;20023;-52
2024/02/07 08:55:09;;;;;;;11.30;2.00;;;6.40;99.90;;;;;;5097298;28;20019;-53
2024/02/07 08:57:39;;;;;;;12.23;1.30;;;6.40;99.90;;;;;;5098006;28;20420;-53
2024/02/07 09:00:08;;;;;;;13.10;2.53;;;6.40;99.90;;;;;;5094265;28;20119;-48
2024/02/07 09:02:34;;;;;;;8.27;1.10;;;6.40;99.90;;;;;;5093424;28;20103;-53
2024/02/07 09:05:06;;;;;;;14.05;2.03;;;6.40;99.90;;;;;;5109563;28;20040;-51
2024/02/07 09:07:31;;;;;;;9.90;1.80;;;6.50;99.90;;;;;;5113214;28;20476;-49
2024/02/07 09:09:58;;;;;;;22.67;2.85;;;6.50;99.90;;;;;;5100742;28;20023;-53
2024/02/07 09:12:24;;;;;;;24.73;2.95;;;6.60;99.90;;;;;;5097030;28;20036;-54
2024/02/07 09:14:50;;;;;;;14.60;2.97;;;6.60;99.90;;;;;;5108210;28;20494;-35
2024/02/07 09:17:15;;;;;;;15.10;2.67;;;6.70;99.90;;;;;;5095908;28;20019;-35
2024/02/07 09:19:41;;;;;;;12.82;2.35;;;6.80;99.90;;;;;;5104885;28;20044;-35
2024/02/07 09:22:07;;;;;;;16.13;2.00;;;6.80;99.90;;;;;;5092641;28;20024;-36
2024/02/07 09:24:32;;;;;;;14.95;2.13;;;6.80;99.90;;;;;;5092919;28;20445;-37
2024/02/07 09:26:59;;;;;;;19.48;3.20;;;6.90;99.90;;;;;;5093539;28;20465;-52
2024/02/07 09:29:24;;;;;;;17.15;1.45;;;6.80;99.90;;;;;;5093034;28;20051;-36
2024/02/07 09:31:50;;;;;;;8.95;1.58;;;6.80;99.90;;;;;;5093503;28;20480;-37
2024/02/07 09:34:16;;;;;;;9.93;1.73;;;6.80;99.90;;;;;;5104267;28;20051;-38
2024/02/07 09:36:42;;;;;;;9.25;1.65;;;6.80;99.90;;;;;;5097217;28;20024;-36
2024/02/07 09:39:08;;;;;;;5.70;2.35;;;7.00;99.90;;;;;;5095806;28;20025;-37
2024/02/07 09:41:34;;;;;;;13.40;2.08;;;7.00;99.90;;;;;;5095191;28;20030;-37
2024/02/07 09:44:03;;;;;;;12.55;1.60;;;7.10;99.90;;;;;;5097928;28;20028;-37
2024/02/07 09:46:42;;;;;;;18.63;1.52;;;7.00;99.90;;;;;;5109151;28;20028;-36
2024/02/07 09:49:14;;;;;;;18.45;1.50;;;7.00;99.90;;;;;;5102783;28;20028;-36
2024/02/07 09:51:41;;;;;;;28.13;1.88;;;7.00;99.90;;;;;;5105111;28;20024;-36
2024/02/07 09:54:10;;;;;;;11.73;1.40;;;7.10;99.90;;;;;;5099647;28;20028;-39
2024/02/07 09:56:37;;;;;;;10.18;2.00;;;7.10;99.90;;;;;;5101998;28;20024;-36
2024/02/07 09:59:04;;;;;;;13.85;1.20;;;7.20;99.90;;;;;;5103495;28;20028;-36
2024/02/07 10:01:30;;;;;;;21.10;2.38;;;7.20;99.90;;;;;;5098988;28;20032;-36
2024/02/07 10:04:00;;;;;;;21.13;1.70;;;7.30;99.90;;;;;;5110228;27;20043;-37
2024/02/07 10:06:26;;;;;;;12.57;1.50;;;7.30;99.90;;;;;;5107809;28;20032;-37
2024/02/07 10:08:52;;;;;;;16.23;1.55;;;7.40;99.90;;;;;;5096440;28;20433;-47
2024/02/07 10:11:20;;;;;;;13.13;1.20;;;7.40;99.90;;;;;;5113392;28;20499;-36
2024/02/07 10:13:46;;;;;;;11.80;2.00;;;7.40;99.90;;;;;;5115013;28;20024;-37
2024/02/07 10:16:12;;;;;;;11.10;1.30;;;7.30;99.90;;;;;;5108333;28;20514;-36
2024/02/07 10:18:39;;;;;;;7.00;1.33;;;7.30;99.90;;;;;;5098253;28;20529;-36
2024/02/07 10:21:04;;;;;;;13.85;2.20;;;7.40;99.90;;;;;;5096655;28;20108;-38
2024/02/07 10:23:31;;;;;;;10.25;2.30;;;7.30;99.90;;;;;;5095028;28;20024;-52
2024/02/07 10:25:59;;;;;;;15.98;3.75;;;7.40;99.90;;;;;;5108295;28;20426;-53
2024/02/07 10:28:26;;;;;;;9.50;1.60;;;7.40;99.90;;;;;;5096050;28;20028;-51
2024/02/07 10:31:12;;;;;;;6.18;2.08;;;7.40;99.90;;;;;;5096853;28;20031;-50
2024/02/07 10:33:44;;;;;;;15.70;1.52;;;7.40;99.90;;;;;;5095796;28;20047;-50
2024/02/07 10:36:11;;;;;;;15.80;1.85;;;7.40;99.90;;;;;;5095579;27;20023;-49
2024/02/07 10:38:37;;;;;;;22.75;2.55;;;7.40;99.90;;;;;;5111606;28;20077;-52
2024/02/07 10:41:03;;;;;;;14.48;1.70;;;7.40;99.90;;;;;;5115840;28;20430;-46
2024/02/07 10:43:33;;;;;;;18.35;1.23;;;7.50;99.90;;;;;;5096188;28;20054;-52
2024/02/07 10:46:03;;;;;;;22.02;1.60;;;7.60;99.90;;;;;;5099967;28;20511;-52
2024/02/07 10:48:30;;;;;;;5.60;1.50;;;7.70;99.90;;;;;;5095392;28;20020;-54
2024/02/07 10:50:59;;;;;;;5.63;1.25;;;7.80;99.90;;;;;;5104321;28;20460;-52
2024/02/07 10:53:28;;;;;;;11.77;1.90;;;7.80;99.90;;;;;;5095256;28;20032;-55
2024/02/07 10:55:56;;;;;;;6.43;1.20;;;7.90;99.90;;;;;;5094938;28;20495;-58
2024/02/07 10:58:24;;;;;;;7.28;1.15;;;7.90;99.90;;;;;;5106241;28;20024;-54
2024/02/07 11:00:55;;;;;;;4.32;1.17;;;8.00;99.90;;;;;;5109381;28;20020;-52
2024/02/07 11:03:22;;;;;;;8.63;4.00;;;8.00;99.90;;;;;;5102442;28;20113;-53
2024/02/07 11:05:49;;;;;;;8.73;1.20;;;8.00;99.90;;;;;;5095426;28;20548;-54
2024/02/07 11:08:15;;;;;;;7.82;1.40;;;7.90;99.90;;;;;;5095872;28;20036;-55
2024/02/07 11:10:41;;;;;;;25.35;1.70;;;7.90;99.90;;;;;;5095499;28;20093;-53
2024/02/07 11:13:11;;;;;;;11.32;1.63;;;7.90;99.90;;;;;;5097170;28;20046;-53
2024/02/07 11:15:38;;;;;;;18.42;1.40;;;7.80;99.90;;;;;;5098343;28;20028;-52
2024/02/07 11:18:06;;;;;;;7.45;1.58;;;7.70;99.90;;;;;;5099689;28;20053;-54
2024/02/07 11:20:32;;;;;;;10.60;1.17;;;7.80;99.90;;;;;;5102344;27;20024;-52
2024/02/07 11:23:00;;;;;;;7.75;1.23;;;7.80;99.90;;;;;;5104949;28;20426;-50
2024/02/07 11:25:27;;;;;;;11.13;1.33;;;7.80;99.90;;;;;;5107935;28;20030;-51
2024/02/07 11:27:54;;;;;;;10.13;2.05;;;7.90;99.90;;;;;;5099567;28;20406;-55
2024/02/07 11:30:20;;;;;;;7.85;0.80;;;8.00;99.90;;;;;;5102128;28;20074;-52
2024/02/07 11:32:51;;;;;;;9.63;1.10;;;8.00;99.90;;;;;;5099646;28;20051;-54
2024/02/07 11:35:20;;;;;;;9.75;1.08;;;7.80;99.90;;;;;;5101234;27;20380;-55
2024/02/07 11:37:52;;;;;;;11.18;1.13;;;7.80;99.90;;;;;;5118528;27;20050;-52
2024/02/07 11:40:19;;;;;;;13.13;1.13;;;7.80;99.90;;;;;;5102210;28;20024;-52
2024/02/07 11:42:45;;;;;;;7.32;1.00;;;7.80;99.90;;;;;;5094225;28;20578;-56
2024/02/07 11:45:17;;;;;;;12.40;1.45;;;7.70;99.90;;;;;;5095501;28;20067;-53
2024/02/07 11:47:43;;;;;;;8.35;1.40;;;7.80;99.90;;;;;;5109527;27;20047;-53
2024/02/07 11:50:14;;;;;;;5.40;1.20;;;7.80;99.90;;;;;;5113944;27;20051;-54
2024/02/07 11:52:41;;;;;;;7.13;1.15;;;7.90;99.90;;;;;;5098991;28;20020;-54
2024/02/07 11:55:11;;;;;;;8.50;1.17;;;8.00;99.90;;;;;;5099934;28;20028;-53
2024/02/07 11:57:42;;;;;;;16.58;1.15;;;8.10;99.90;;;;;;5110476;27;20019;-53
2024/02/07 12:00:14;;;;;;;14.35;1.13;;;8.30;99.90;;;;;;5095104;28;20030;-54
2024/02/07 12:02:49;;;;;;;18.02;1.70;;;8.30;99.90;;;;;;5096220;28;20480;-54
2024/02/07 12:05:20;;;;;;;12.02;1.42;;;8.40;99.90;;;;;;5093802;28;20500;-52
2024/02/07 12:07:50;;;;;;;19.33;1.70;;;8.60;99.90;;;;;;5095259;28;20476;-55
2024/02/07 12:10:16;;;;;;;7.88;1.27;;;8.50;99.90;;;;;;5097452;28;20027;-50
2024/02/07 12:12:42;;;;;;;6.35;1.58;;;8.60;99.90;;;;;;5109732;28;20110;-55
2024/02/07 12:15:09;;;;;;;7.30;1.00;;;8.60;99.90;;;;;;5097673;28;20486;-53
2024/02/07 12:17:35;;;;;;;9.52;1.95;;;8.70;99.90;;;;;;5102200;27;20365;-55
2024/02/07 12:20:02;;;;;;;10.10;0.98;;;8.70;99.90;;;;;;5098121;28;20088;-51
2024/02/07 12:22:30;;;;;;;9.88;1.65;;;8.70;99.90;;;;;;5112124;28;20076;-55
2024/02/07 12:25:00;;;;;;;4.75;1.25;;;8.70;99.90;;;;;;5102320;28;20055;-55
2024/02/07 12:27:26;;;;;;;7.25;1.30;;;8.60;99.90;;;;;;5109126;28;20020;-55
2024/02/07 12:29:54;;;;;;;20.42;1.20;;;8.60;99.90;;;;;;5109120;28;20023;-55
2024/02/07 12:32:20;;;;;;;13.15;1.38;;;8.50;99.90;;;;;;5109751;27;20032;-56
2024/02/07 12:34:46;;;;;;;9.35;1.15;;;8.60;99.90;;;;;;5096612;28;20039;-55
2024/02/07 12:37:14;;;;;;;5.13;0.57;;;8.60;99.90;;;;;;5103976;28;20034;-54
2024/02/07 12:39:40;;;;;;;8.32;0.75;;;8.50;99.90;;;;;;5108097;28;20023;-55
2024/02/07 12:42:13;;;;;;;4.70;0.98;;;8.50;99.90;;;;;;5095105;27;20024;-53
2024/02/07 12:44:40;;;;;;;4.60;0.88;;;8.60;99.90;;;;;;5099188;28;20047;-55
2024/02/07 12:47:07;;;;;;;11.57;1.48;;;8.60;99.90;;;;;;5104386;28;20032;-54
2024/02/07 12:49:33;;;;;;;7.00;1.05;;;8.70;99.90;;;;;;5113961;28;20028;-54
2024/02/07 12:51:59;;;;;;;6.20;0.90;;;8.80;99.90;;;;;;5113655;28;20027;-55
2024/02/07 12:54:27;;;;;;;3.00;0.57;;;8.90;99.90;;;;;;5095786;28;20480;-40
2024/02/07 12:56:53;;;;;;;;;;;8.90;99.90;;;;;;5110535;27;20022;-41
2024/02/07 12:59:34;;;;;;;7.45;1.10;;;9.10;99.90;;;;;;5099937;28;19908;-44
2024/02/07 13:02:07;;;;;;;9.57;1.23;;;9.20;99.90;;;;;;5107612;28;20369;-50
2024/02/07 13:04:33;;;;;;;13.35;1.27;;;9.10;99.90;;;;;;5093138;28;20032;-41
2024/02/07 13:07:00;;;;;;;4.10;1.02;;;8.90;99.90;;;;;;5092631;28;20073;-43
2024/02/07 13:09:27;;;;;;;9.40;0.95;;;9.00;99.90;;;;;;5092832;28;20508;-41
2024/02/07 13:11:54;;;;;;;8.48;1.15;;;9.00;99.90;;;;;;5106107;28;20066;-43
2024/02/07 13:14:20;;;;;;;5.07;0.70;;;9.00;99.90;;;;;;5113192;27;20399;-38
2024/02/07 13:16:45;;;;;;;5.97;2.08;;;9.00;99.90;;;;;;5113531;27;20024;-40
2024/02/07 13:19:15;;;;;;;2.17;0.65;;;9.10;99.90;;;;;;5113241;28;20034;-41
2024/02/07 13:21:41;;;;;;;6.03;0.80;;;8.90;99.90;;;;;;5102672;28;20031;-41
2024/02/07 13:24:17;;;;;;;6.55;1.52;;;8.90;99.90;;;;;;5092231;28;20466;-41
2024/02/07 13:26:44;;;;;;;4.38;1.08;;;8.80;99.90;;;;;;5112576;28;20479;-40
2024/02/07 13:29:10;;;;;;;5.05;1.85;;;8.70;99.90;;;;;;5112362;28;20032;-39
2024/02/07 13:31:37;;;;;;;5.70;0.85;;;8.60;99.90;;;;;;5108452;28;20514;-39
2024/02/07 13:34:04;;;;;;;5.38;1.55;;;8.80;99.90;;;;;;5111700;28;20052;-41
2024/02/07 13:36:30;;;;;;;7.93;1.33;;;8.80;99.90;;;;;;5112597;28;20380;-40
2024/02/07 13:38:57;;;;;;;9.02;1.67;;;8.80;99.90;;;;;;5101340;28;20023;-41
2024/02/07 13:41:23;;;;;;;5.75;0.85;;;8.70;99.90;;;;;;5092630;28;20527;-42
2024/02/07 13:43:48;;;;;;;9.20;1.65;;;8.50;99.90;;;;;;5092728;28;20028;-42
2024/02/07 13:46:14;;;;;;;14.60;1.10;;;8.40;99.90;;;;;;5098535;28;20120;-39
2024/02/07 13:48:39;;;;;;;4.43;0.90;;;8.60;99.90;;;;;;5100821;28;20025;-40
2024/02/07 13:51:06;;;;;;;9.00;1.45;;;8.70;99.90;;;;;;5091042;28;20024;-39
2024/02/07 13:53:32;;;;;;;10.00;0.88;;;8.70;99.90;;;;;;5106317;28;20492;-55
2024/02/07 13:55:57;;;;;;;6.18;1.02;;;8.70;99.90;;;;;;5111325;28;20114;-53
2024/02/07 13:58:24;;;;;;;11.90;1.25;;;8.70;99.90;;;;;;5102488;28;20020;-55